Time;durP1;ratioP1;P1;durP2;ratioP2;P2;SDS_P1;SDS_P2;PMS_P1;PMS_P2;Temp;Humidity;BMP_temperature;BMP_pressure;BME280_temperature;BME280_humidity;BME280_pressure;Samples;Min_cycle;Max_cycle;Signal;HPM_P1;HPM_P2
2023/06/20 00:02:49;;;;;;;7.95;4.18;;;28.20;39.00;;;;;;6260337;28;20049;-71
2023/06/20 00:05:50;;;;;;;9.77;4.40;;;28.10;39.00;;;;;;6242811;28;20344;-73
2023/06/20 00:08:51;;;;;;;16.10;5.00;;;28.10;39.10;;;;;;6242544;28;20037;-72
2023/06/20 00:11:52;;;;;;;10.65;4.65;;;28.10;39.10;;;;;;6242004;28;20029;-71
2023/06/20 00:14:53;;;;;;;8.20;4.53;;;28.10;39.30;;;;;;6242659;28;20032;-72
2023/06/20 00:17:55;;;;;;;8.07;4.60;;;28.10;39.30;;;;;;6242315;28;20083;-71
2023/06/20 00:20:56;;;;;;;8.63;4.22;;;28.00;39.20;;;;;;6241115;28;20132;-73
2023/06/20 00:23:57;;;;;;;7.53;3.83;;;28.00;39.30;;;;;;6240581;28;20051;-72
2023/06/20 00:27:01;;;;;;;7.90;3.83;;;27.90;39.50;;;;;;6239846;28;20029;-72
2023/06/20 00:30:02;;;;;;;7.95;3.78;;;27.90;39.60;;;;;;6241645;28;20091;-71
2023/06/20 00:33:03;;;;;;;7.47;4.15;;;27.70;39.50;;;;;;6239009;28;20049;-71
2023/06/20 00:36:04;;;;;;;13.23;3.60;;;27.60;39.60;;;;;;6239749;28;20044;-73
2023/06/20 00:39:05;;;;;;;5.78;3.47;;;27.50;39.50;;;;;;6241447;28;20068;-72
2023/06/20 00:42:05;;;;;;;7.65;3.28;;;27.40;39.60;;;;;;6255933;28;20400;-72
2023/06/20 00:45:30;;;;;;;5.93;3.17;;;27.30;39.70;;;;;;6241018;28;20094;-73
2023/06/20 00:48:31;;;;;;;8.13;3.03;;;27.10;39.90;;;;;;6239436;28;20101;-72
2023/06/20 00:51:33;;;;;;;4.13;3.17;;;27.00;40.00;;;;;;6239227;28;20172;-72
2023/06/20 00:54:34;;;;;;;5.07;3.20;;;26.90;40.10;;;;;;6255625;28;20425;-72
2023/06/20 00:57:36;;;;;;;6.93;3.97;;;26.80;40.30;;;;;;6256251;28;20083;-72
2023/06/20 01:00:38;;;;;;;7.53;3.53;;;26.70;40.60;;;;;;6223228;28;20037;-72
2023/06/20 01:03:39;;;;;;;6.18;3.60;;;26.70;40.90;;;;;;6255656;28;20065;-73
2023/06/20 01:06:43;;;;;;;9.45;3.97;;;26.60;41.10;;;;;;6239554;28;20033;-70
2023/06/20 01:10:08;;;;;;;5.82;3.70;;;26.50;41.20;;;;;;6240751;28;20025;-73
2023/06/20 01:13:35;;;;;;;6.68;3.63;;;26.50;41.60;;;;;;6255275;28;20752;-71
2023/06/20 01:16:47;;;;;;;6.88;3.45;;;26.50;41.60;;;;;;6238130;28;20117;-70
2023/06/20 01:20:16;;;;;;;10.90;3.97;;;26.50;41.50;;;;;;6259917;28;20037;-71
2023/06/20 01:23:31;;;;;;;5.90;3.13;;;26.50;41.50;;;;;;6187275;28;20085;-71
2023/06/20 01:26:57;;;;;;;7.40;3.35;;;26.50;41.40;;;;;;6172282;28;20038;-71
2023/06/20 01:30:19;;;;;;;8.30;3.85;;;26.50;41.50;;;;;;6189082;28;20041;-72
2023/06/20 01:33:27;;;;;;;6.07;3.50;;;26.50;41.50;;;;;;6172410;28;20880;-71
2023/06/20 01:36:33;;;;;;;7.68;3.40;;;26.50;41.60;;;;;;6171997;28;20027;-71
2023/06/20 01:39:45;;;;;;;4.97;3.33;;;26.50;41.60;;;;;;6187793;28;20045;-71
2023/06/20 01:42:48;;;;;;;5.50;3.30;;;26.50;41.70;;;;;;6172013;28;20033;-71
2023/06/20 01:45:52;;;;;;;6.28;3.85;;;26.50;41.80;;;;;;6156498;28;20038;-73
2023/06/20 01:48:53;;;;;;;5.25;3.38;;;26.40;41.80;;;;;;6171434;28;20038;-71
2023/06/20 01:51:56;;;;;;;8.73;3.40;;;26.50;41.80;;;;;;6190427;28;20034;-72
2023/06/20 01:54:58;;;;;;;12.50;4.70;;;26.50;41.80;;;;;;6170474;28;20039;-71
2023/06/20 01:58:02;;;;;;;8.80;3.40;;;26.50;41.80;;;;;;6168465;28;20077;-71
2023/06/20 02:01:03;;;;;;;6.82;3.70;;;26.50;41.70;;;;;;6209463;28;20042;-71
2023/06/20 02:04:05;;;;;;;8.68;3.85;;;26.50;41.60;;;;;;6235109;28;20044;-71
2023/06/20 02:07:09;;;;;;;8.20;3.55;;;26.60;41.60;;;;;;6218531;28;20034;-72
2023/06/20 02:10:13;;;;;;;6.00;3.50;;;26.60;41.60;;;;;;6235429;28;20044;-72
2023/06/20 02:13:14;;;;;;;11.48;4.00;;;26.50;41.70;;;;;;6218614;28;20430;-70
2023/06/20 02:16:17;;;;;;;8.65;3.65;;;26.40;41.90;;;;;;6235829;28;20321;-72
2023/06/20 02:19:18;;;;;;;8.05;3.25;;;26.30;42.30;;;;;;6249987;28;20121;-71
2023/06/20 02:22:23;;;;;;;7.20;3.67;;;26.10;42.50;;;;;;6243604;28;20040;-71
2023/06/20 02:25:29;;;;;;;7.35;3.50;;;26.00;42.50;;;;;;6241928;28;20037;-71
2023/06/20 02:28:30;;;;;;;6.97;3.70;;;26.00;42.60;;;;;;6242594;28;20056;-71
2023/06/20 02:31:39;;;;;;;6.13;3.42;;;26.00;42.60;;;;;;6242306;28;20030;-70
2023/06/20 02:34:44;;;;;;;7.70;3.78;;;26.00;42.70;;;;;;6258599;28;20488;-71
2023/06/20 02:37:45;;;;;;;7.80;3.72;;;26.00;42.90;;;;;;6260241;28;20041;-72
2023/06/20 02:40:46;;;;;;;7.63;3.80;;;26.00;43.20;;;;;;6242666;28;20124;-71
2023/06/20 02:43:48;;;;;;;4.75;3.67;;;25.80;43.50;;;;;;6241391;28;20060;-73
2023/06/20 02:47:01;;;;;;;6.63;3.72;;;25.80;43.90;;;;;;6225655;28;20079;-70
2023/06/20 02:50:23;;;;;;;11.43;4.25;;;25.70;43.90;;;;;;6259031;28;20158;-70
2023/06/20 02:53:39;;;;;;;4.50;3.55;;;25.70;44.00;;;;;;6257875;28;20026;-71
2023/06/20 02:56:43;;;;;;;9.10;3.78;;;25.70;44.10;;;;;;6258659;28;20026;-71
2023/06/20 02:59:52;;;;;;;6.13;3.85;;;25.70;44.20;;;;;;6258740;28;20037;-72
2023/06/20 03:03:06;;;;;;;6.72;3.30;;;25.80;44.20;;;;;;6242162;28;20029;-73
2023/06/20 03:06:09;;;;;;;9.75;3.92;;;25.80;44.20;;;;;;6236777;28;20161;-72
2023/06/20 03:09:13;;;;;;;7.50;3.92;;;25.80;44.20;;;;;;6230045;28;20544;-73
2023/06/20 03:12:14;;;;;;;8.48;3.35;;;25.80;44.00;;;;;;6241416;28;20033;-70
2023/06/20 03:15:15;;;;;;;5.97;3.30;;;25.80;44.00;;;;;;6241170;28;20037;-74
2023/06/20 03:18:17;;;;;;;8.27;3.92;;;25.80;44.00;;;;;;6257838;28;20061;-71
2023/06/20 03:21:19;;;;;;;7.63;4.05;;;25.80;44.00;;;;;;6241353;28;20497;-72
2023/06/20 03:24:20;;;;;;;16.45;4.00;;;25.80;44.10;;;;;;6257177;28;20138;-71
2023/06/20 03:27:21;;;;;;;16.33;4.40;;;25.80;44.10;;;;;;6240667;28;20038;-72
2023/06/20 03:30:23;;;;;;;9.38;4.05;;;25.90;44.20;;;;;;6257610;28;20540;-72
2023/06/20 03:33:25;;;;;;;8.43;4.20;;;25.90;44.20;;;;;;6256331;28;20429;-72
2023/06/20 03:36:26;;;;;;;7.93;4.45;;;25.90;44.20;;;;;;6243428;28;20036;-71
2023/06/20 03:39:28;;;;;;;11.48;4.50;;;25.90;44.30;;;;;;6257178;28;20053;-71
2023/06/20 03:42:28;;;;;;;15.07;5.10;;;25.90;44.30;;;;;;6239614;28;20149;-70
2023/06/20 03:45:29;;;;;;;6.47;4.13;;;25.90;44.60;;;;;;6239666;28;20071;-73
2023/06/20 03:48:30;;;;;;;9.95;4.05;;;25.90;44.70;;;;;;6241002;28;20599;-72
2023/06/20 03:51:32;;;;;;;8.60;4.38;;;25.90;44.90;;;;;;6235726;28;20037;-71
2023/06/20 03:54:34;;;;;;;8.40;4.22;;;25.80;44.90;;;;;;6235350;28;20033;-71
2023/06/20 03:57:35;;;;;;;8.25;4.43;;;25.80;45.10;;;;;;6229530;28;20560;-71
2023/06/20 04:00:38;;;;;;;7.93;4.65;;;25.80;45.20;;;;;;6250453;28;20041;-71
2023/06/20 04:03:39;;;;;;;8.70;4.93;;;25.80;45.20;;;;;;6243484;28;20373;-73
2023/06/20 04:06:40;;;;;;;8.02;5.10;;;25.70;45.20;;;;;;6229006;28;20033;-71
2023/06/20 04:09:41;;;;;;;7.78;4.05;;;25.70;45.30;;;;;;6220859;28;20072;-71
2023/06/20 04:12:42;;;;;;;9.10;4.90;;;25.70;45.60;;;;;;6237191;28;20036;-73
2023/06/20 04:15:43;;;;;;;9.77;4.43;;;25.70;45.90;;;;;;6238303;28;20051;-74
2023/06/20 04:18:44;;;;;;;11.88;4.72;;;25.60;46.10;;;;;;6239499;28;20041;-74
2023/06/20 04:21:45;;;;;;;8.40;4.65;;;25.60;46.30;;;;;;6235994;28;20034;-71
2023/06/20 04:24:46;;;;;;;10.70;4.55;;;25.50;46.30;;;;;;6238968;28;20037;-72
2023/06/20 04:27:53;;;;;;;7.30;4.50;;;25.50;46.50;;;;;;6239349;28;20044;-72
2023/06/20 04:30:55;;;;;;;10.67;5.00;;;25.50;46.80;;;;;;6239226;28;20550;-71
2023/06/20 04:33:57;;;;;;;8.45;4.80;;;25.50;46.90;;;;;;6238255;28;20272;-71
2023/06/20 04:37:01;;;;;;;8.50;4.93;;;25.50;46.90;;;;;;6219630;28;20091;-72
2023/06/20 04:40:05;;;;;;;7.90;4.53;;;25.50;47.00;;;;;;6254328;28;20053;-71
2023/06/20 04:43:06;;;;;;;10.52;4.80;;;25.50;47.10;;;;;;6224671;28;20060;-72
2023/06/20 04:46:07;;;;;;;9.25;4.97;;;25.50;47.20;;;;;;6225607;28;20030;-71
2023/06/20 04:49:08;;;;;;;11.77;4.88;;;25.50;47.40;;;;;;6252509;28;20030;-72
2023/06/20 04:52:09;;;;;;;5.32;4.25;;;25.50;47.40;;;;;;6241673;28;20339;-72
2023/06/20 04:55:10;;;;;;;6.57;4.18;;;25.50;47.60;;;;;;6252564;28;20033;-70
2023/06/20 04:58:12;;;;;;;7.43;4.18;;;25.50;47.70;;;;;;6227605;28;20485;-72
2023/06/20 05:01:15;;;;;;;12.40;5.32;;;25.50;47.70;;;;;;6236281;28;20037;-71
2023/06/20 05:04:17;;;;;;;12.82;4.70;;;25.60;47.80;;;;;;6255295;28;20037;-71
2023/06/20 05:07:18;;;;;;;7.25;4.75;;;25.60;48.00;;;;;;6248635;28;21195;-71
2023/06/20 05:10:19;;;;;;;13.23;4.80;;;25.60;48.10;;;;;;6223334;28;20030;-71
2023/06/20 05:13:22;;;;;;;11.27;4.82;;;25.60;48.30;;;;;;6222764;28;20596;-73
2023/06/20 05:16:23;;;;;;;12.02;5.35;;;25.50;48.50;;;;;;6239401;28;20413;-70
2023/06/20 05:19:25;;;;;;;10.25;4.95;;;25.50;48.50;;;;;;6239794;28;21622;-72
2023/06/20 05:22:26;;;;;;;11.80;5.53;;;25.50;48.50;;;;;;6238775;28;20041;-73
2023/06/20 05:25:27;;;;;;;10.07;4.95;;;25.50;48.60;;;;;;6223005;28;20041;-73
2023/06/20 05:28:27;;;;;;;11.95;4.85;;;25.50;48.50;;;;;;6251117;28;20104;-71
2023/06/20 05:31:29;;;;;;;14.07;5.60;;;25.50;48.40;;;;;;6248496;28;20027;-74
2023/06/20 05:34:30;;;;;;;9.75;4.93;;;25.50;48.40;;;;;;6243628;28;20057;-74
2023/06/20 05:37:31;;;;;;;11.15;5.10;;;25.50;48.40;;;;;;6255965;28;20093;-72
2023/06/20 05:40:32;;;;;;;12.07;4.40;;;25.50;48.50;;;;;;6244397;28;20025;-72
2023/06/20 05:43:33;;;;;;;9.65;5.38;;;25.50;48.70;;;;;;6243862;28;20116;-72
2023/06/20 05:46:34;;;;;;;10.13;4.85;;;25.50;48.90;;;;;;6260280;28;20540;-71
2023/06/20 05:49:36;;;;;;;11.25;5.28;;;25.50;49.00;;;;;;6260507;28;20029;-73
2023/06/20 05:52:36;;;;;;;9.65;4.93;;;25.60;49.10;;;;;;6260011;28;20033;-72
2023/06/20 05:55:39;;;;;;;11.48;4.97;;;25.60;49.10;;;;;;6260737;28;20393;-72
2023/06/20 05:58:41;;;;;;;10.98;5.45;;;25.70;49.10;;;;;;6244293;28;20160;-75
2023/06/20 06:01:42;;;;;;;12.95;5.47;;;25.80;49.10;;;;;;6244889;28;20136;-73
2023/06/20 06:04:44;;;;;;;11.88;5.55;;;25.80;48.90;;;;;;6245221;28;20104;-73
2023/06/20 06:07:45;;;;;;;7.32;5.00;;;25.90;48.90;;;;;;6243626;28;20037;-72
2023/06/20 06:10:46;;;;;;;11.10;5.10;;;26.00;49.10;;;;;;6243730;28;20179;-71
2023/06/20 06:13:47;;;;;;;17.50;5.32;;;26.00;49.10;;;;;;6243855;28;20063;-72
2023/06/20 06:16:48;;;;;;;9.63;4.85;;;26.00;49.10;;;;;;6245725;28;20052;-73
2023/06/20 06:19:49;;;;;;;9.02;5.38;;;26.10;49.20;;;;;;6263496;28;20481;-72
2023/06/20 06:22:50;;;;;;;11.00;5.35;;;26.20;49.10;;;;;;6259709;28;20033;-74
2023/06/20 06:25:52;;;;;;;8.82;5.57;;;26.30;49.10;;;;;;6243737;28;20043;-74
2023/06/20 06:28:53;;;;;;;16.20;6.15;;;26.40;48.90;;;;;;6222873;28;20049;-73
2023/06/20 06:31:57;;;;;;;18.60;5.70;;;26.50;48.80;;;;;;6219408;28;20040;-73
2023/06/20 06:34:59;;;;;;;13.40;5.18;;;26.50;48.80;;;;;;6218796;28;20060;-71
2023/06/20 06:38:00;;;;;;;11.88;5.70;;;26.50;48.70;;;;;;6251529;28;20543;-72
2023/06/20 06:41:06;;;;;;;8.32;4.93;;;26.60;48.70;;;;;;6244825;28;20056;-73
2023/06/20 06:44:07;;;;;;;10.65;5.38;;;26.80;48.60;;;;;;6244868;28;20656;-72
2023/06/20 06:47:08;;;;;;;11.13;5.38;;;27.00;48.30;;;;;;6242647;28;20033;-73
2023/06/20 06:50:09;;;;;;;11.18;5.00;;;27.20;48.00;;;;;;6243186;28;20186;-73
2023/06/20 06:53:11;;;;;;;6.65;4.80;;;27.40;47.40;;;;;;6244624;28;20048;-74
2023/06/20 06:56:11;;;;;;;8.68;5.35;;;27.60;47.00;;;;;;6259247;28;20221;-72
2023/06/20 06:59:12;;;;;;;11.93;6.57;;;27.70;46.20;;;;;;6259407;28;20491;-73
2023/06/20 07:02:13;;;;;;;9.30;4.70;;;27.60;45.80;;;;;;6244987;28;20485;-72
2023/06/20 07:05:14;;;;;;;12.65;6.13;;;27.70;45.70;;;;;;6244769;28;20025;-73
2023/06/20 07:08:15;;;;;;;10.48;5.60;;;27.80;45.30;;;;;;6244455;28;20446;-73
2023/06/20 07:11:17;;;;;;;8.60;4.63;;;27.80;45.20;;;;;;6243853;28;20034;-72
2023/06/20 07:14:18;;;;;;;8.00;5.10;;;28.00;44.90;;;;;;6245422;28;20059;-72
2023/06/20 07:17:18;;;;;;;21.08;4.65;;;28.10;44.30;;;;;;6246540;28;20049;-73
2023/06/20 07:20:19;;;;;;;14.55;6.30;;;28.10;44.00;;;;;;6273368;28;20118;-72
2023/06/20 07:23:21;;;;;;;14.88;4.93;;;28.20;43.90;;;;;;6245053;28;20048;-74
2023/06/20 07:26:22;;;;;;;6.25;4.13;;;28.30;43.90;;;;;;6259614;28;20065;-72
2023/06/20 07:29:22;;;;;;;10.90;4.25;;;28.30;43.90;;;;;;6262066;28;20075;-73
2023/06/20 07:32:23;;;;;;;10.35;5.07;;;28.40;44.00;;;;;;6244364;28;20025;-72
2023/06/20 07:35:24;;;;;;;12.35;4.88;;;28.40;44.10;;;;;;6261481;28;20133;-73
2023/06/20 07:38:25;;;;;;;16.25;5.60;;;28.50;44.00;;;;;;6268109;28;20107;-74
2023/06/20 07:41:26;;;;;;;16.98;5.55;;;28.60;43.90;;;;;;6263874;28;20049;-72
2023/06/20 07:44:27;;;;;;;14.18;5.88;;;28.80;43.90;;;;;;6258758;28;20037;-73
2023/06/20 07:47:28;;;;;;;12.98;5.35;;;28.90;43.80;;;;;;6262303;28;20036;-73
2023/06/20 07:50:30;;;;;;;16.83;5.93;;;29.00;43.80;;;;;;6257542;28;20068;-71
2023/06/20 07:53:31;;;;;;;10.13;5.60;;;29.10;43.80;;;;;;6245933;28;20041;-71
2023/06/20 07:56:32;;;;;;;10.25;4.97;;;29.30;43.70;;;;;;6257271;28;20037;-73
2023/06/20 07:59:33;;;;;;;8.13;5.38;;;29.30;43.60;;;;;;6255016;28;20131;-71
2023/06/20 08:02:34;;;;;;;10.68;5.45;;;29.30;43.70;;;;;;6257781;28;20072;-74
2023/06/20 08:05:35;;;;;;;9.50;6.22;;;29.40;43.70;;;;;;6258013;28;20037;-73
2023/06/20 08:08:35;;;;;;;9.45;5.40;;;29.50;43.60;;;;;;6241991;28;20029;-72
2023/06/20 08:11:37;;;;;;;9.38;5.63;;;29.50;43.60;;;;;;6242370;28;20477;-72
2023/06/20 08:14:38;;;;;;;14.00;5.53;;;29.60;43.60;;;;;;6240990;28;20045;-72
2023/06/20 08:17:39;;;;;;;11.88;5.38;;;29.60;43.50;;;;;;6258776;28;20039;-72
2023/06/20 08:20:41;;;;;;;10.77;5.28;;;29.70;43.40;;;;;;6242616;28;20031;-71
2023/06/20 08:23:44;;;;;;;10.00;5.63;;;29.80;43.30;;;;;;6240771;28;20145;-72
2023/06/20 08:26:44;;;;;;;11.27;5.63;;;29.80;43.30;;;;;;6241832;28;20748;-73
2023/06/20 08:29:45;;;;;;;13.65;6.13;;;29.90;43.20;;;;;;6241088;28;20037;-72
2023/06/20 08:32:47;;;;;;;6.90;4.90;;;30.00;43.20;;;;;;6242499;28;20145;-73
2023/06/20 08:35:50;;;;;;;9.70;5.45;;;30.00;43.10;;;;;;6243547;28;20036;-73
2023/06/20 08:38:51;;;;;;;9.30;5.28;;;30.10;43.10;;;;;;6226502;28;20091;-73
2023/06/20 08:41:52;;;;;;;10.95;6.00;;;30.10;43.00;;;;;;6240186;28;20741;-72
2023/06/20 08:44:56;;;;;;;9.85;5.65;;;30.20;43.00;;;;;;6256921;28;20374;-72
2023/06/20 08:47:58;;;;;;;11.93;5.57;;;30.20;43.00;;;;;;6240741;28;20037;-72
2023/06/20 08:50:59;;;;;;;10.10;6.07;;;30.30;42.90;;;;;;6241884;28;20519;-76
2023/06/20 08:54:03;;;;;;;9.88;5.15;;;30.40;42.80;;;;;;6240935;28;20036;-71
2023/06/20 08:57:06;;;;;;;15.85;5.18;;;30.50;42.70;;;;;;6257377;28;20465;-73
2023/06/20 09:00:11;;;;;;;8.60;5.10;;;30.50;42.70;;;;;;6241336;28;20079;-72
2023/06/20 09:03:12;;;;;;;18.65;5.40;;;30.50;42.70;;;;;;6228355;28;20052;-73
2023/06/20 09:06:13;;;;;;;9.20;5.90;;;30.60;42.70;;;;;;6245434;28;20029;-72
2023/06/20 09:09:17;;;;;;;24.98;5.82;;;30.60;42.60;;;;;;6246493;28;20121;-72
2023/06/20 09:12:20;;;;;;;9.30;6.28;;;30.50;42.80;;;;;;6244634;28;20047;-71
2023/06/20 09:15:24;;;;;;;11.63;6.00;;;30.60;42.80;;;;;;6244444;28;20121;-71
2023/06/20 09:18:26;;;;;;;8.48;5.68;;;30.60;42.90;;;;;;6228006;28;20144;-72
2023/06/20 09:21:27;;;;;;;18.30;6.40;;;30.60;43.00;;;;;;6244138;28;20642;-73
2023/06/20 09:24:28;;;;;;;8.60;5.38;;;30.60;43.20;;;;;;6244838;28;20045;-72
2023/06/20 09:27:36;;;;;;;12.00;5.38;;;30.50;43.20;;;;;;6247289;28;20120;-74
2023/06/20 09:30:39;;;;;;;13.05;6.30;;;30.60;43.20;;;;;;6261681;28;20080;-73
2023/06/20 09:33:40;;;;;;;14.45;6.18;;;30.70;43.00;;;;;;6245319;28;20034;-73
2023/06/20 09:36:42;;;;;;;10.45;5.88;;;30.80;42.80;;;;;;6248166;28;20021;-72
2023/06/20 09:39:43;;;;;;;18.13;5.40;;;31.00;42.70;;;;;;6269390;28;20059;-73
2023/06/20 09:42:45;;;;;;;9.25;5.63;;;31.10;42.30;;;;;;6268630;28;20487;-72
2023/06/20 09:45:46;;;;;;;11.07;5.40;;;31.10;42.10;;;;;;6270138;28;20424;-74
2023/06/20 09:48:48;;;;;;;10.07;5.18;;;31.30;41.80;;;;;;6257630;28;20033;-74
2023/06/20 09:51:53;;;;;;;7.80;4.68;;;31.40;41.50;;;;;;6243718;28;20049;-74
2023/06/20 09:55:02;;;;;;;14.07;5.30;;;31.40;41.10;;;;;;6227572;28;20041;-72
2023/06/20 09:58:04;;;;;;;8.70;5.32;;;31.40;40.80;;;;;;6235809;28;20557;-74
2023/06/20 10:01:07;;;;;;;10.88;5.15;;;31.70;40.50;;;;;;6219464;28;20051;-74
2023/06/20 10:04:19;;;;;;;10.63;5.70;;;31.60;40.20;;;;;;6220430;28;20351;-74
2023/06/20 10:07:22;;;;;;;8.80;5.30;;;31.70;39.80;;;;;;6236046;28;20601;-71
2023/06/20 10:10:24;;;;;;;8.57;5.07;;;31.70;39.70;;;;;;6220276;28;20026;-72
2023/06/20 10:13:26;;;;;;;15.60;5.68;;;31.80;39.30;;;;;;6217250;28;20072;-73
2023/06/20 10:16:28;;;;;;;12.38;5.47;;;31.90;39.20;;;;;;6218135;28;20038;-73
2023/06/20 10:19:29;;;;;;;11.25;5.15;;;32.00;39.10;;;;;;6219511;28;20550;-74
2023/06/20 10:22:37;;;;;;;11.75;5.88;;;32.20;38.80;;;;;;6219120;28;20117;-75
2023/06/20 10:25:58;;;;;;;15.38;6.05;;;32.30;38.60;;;;;;6219387;28;20087;-75
2023/06/20 10:29:00;;;;;;;10.90;5.53;;;32.30;38.50;;;;;;6257216;28;20355;-73
2023/06/20 10:32:09;;;;;;;11.65;5.32;;;32.40;38.30;;;;;;6243631;28;21803;-76
2023/06/20 10:35:15;;;;;;;8.25;5.10;;;32.50;38.20;;;;;;6244431;28;20141;-72
2023/06/20 10:38:16;;;;;;;9.23;5.82;;;32.40;38.00;;;;;;6260110;28;20040;-73
2023/06/20 10:41:20;;;;;;;8.95;4.70;;;32.40;38.00;;;;;;6242249;28;20065;-73
2023/06/20 10:44:29;;;;;;;10.02;5.55;;;32.40;37.90;;;;;;6242145;28;20099;-74
2023/06/20 10:47:29;;;;;;;10.85;5.35;;;32.40;38.00;;;;;;6243504;28;20403;-74
2023/06/20 10:50:30;;;;;;;13.43;5.35;;;32.60;37.90;;;;;;6258544;28;20033;-74
2023/06/20 10:53:31;;;;;;;12.48;4.97;;;32.80;37.70;;;;;;6243573;28;20128;-75
2023/06/20 10:56:35;;;;;;;13.82;5.63;;;33.00;37.30;;;;;;6243561;28;20037;-71
2023/06/20 10:59:36;;;;;;;12.77;5.28;;;33.10;36.90;;;;;;6243387;28;20509;-73
2023/06/20 11:02:41;;;;;;;12.70;5.60;;;33.10;36.50;;;;;;6243077;28;20033;-74
2023/06/20 11:05:48;;;;;;;10.32;5.32;;;33.20;36.40;;;;;;6258866;28;20045;-73
2023/06/20 11:08:49;;;;;;;13.55;5.00;;;33.30;36.20;;;;;;6241649;28;20504;-72
2023/06/20 11:11:50;;;;;;;8.77;5.32;;;33.90;35.50;;;;;;6258373;28;20029;-73
2023/06/20 11:14:51;;;;;;;9.85;4.32;;;34.40;34.50;;;;;;6257887;28;20350;-74
2023/06/20 11:17:53;;;;;;;7.50;4.15;;;34.80;33.50;;;;;;6257177;28;20040;-73
2023/06/20 11:20:58;;;;;;;11.02;3.72;;;35.20;32.50;;;;;;6241008;28;20113;-72
2023/06/20 11:24:03;;;;;;;10.27;3.78;;;35.80;31.50;;;;;;6242453;28;20462;-73
2023/06/20 11:27:11;;;;;;;11.15;3.92;;;36.40;29.80;;;;;;6241359;28;20108;-74
2023/06/20 11:30:13;;;;;;;10.55;3.10;;;36.90;29.00;;;;;;6241481;28;20501;-73
2023/06/20 11:33:16;;;;;;;9.65;3.38;;;37.40;28.40;;;;;;6242484;28;20033;-73
2023/06/20 11:36:17;;;;;;;6.95;3.20;;;37.90;27.60;;;;;;6242080;28;20037;-73
2023/06/20 11:39:18;;;;;;;11.48;3.55;;;38.30;26.90;;;;;;6282542;28;20025;-73
2023/06/20 11:42:19;;;;;;;5.78;3.47;;;38.60;26.40;;;;;;6247383;28;20483;-73
2023/06/20 11:45:25;;;;;;;5.80;3.30;;;38.80;26.10;;;;;;6257474;28;20086;-75
2023/06/20 11:48:26;;;;;;;7.18;3.50;;;38.90;26.10;;;;;;6242456;28;20053;-74
2023/06/20 11:51:30;;;;;;;4.65;3.17;;;39.10;25.80;;;;;;6242365;28;20059;-73
2023/06/20 11:54:46;;;;;;;7.05;3.55;;;39.40;25.40;;;;;;6242079;28;20041;-75
2023/06/20 11:57:47;;;;;;;7.28;3.50;;;39.40;25.40;;;;;;6241062;28;20142;-73
2023/06/20 12:01:04;;;;;;;9.55;3.55;;;39.50;25.60;;;;;;6242480;28;20030;-74
2023/06/20 12:04:14;;;;;;;8.68;4.30;;;39.50;25.70;;;;;;6258019;28;20191;-73
2023/06/20 12:07:18;;;;;;;11.57;4.00;;;39.70;25.60;;;;;;6242583;28;20033;-73
2023/06/20 12:10:20;;;;;;;4.65;3.13;;;39.90;25.40;;;;;;6242595;28;20076;-74
2023/06/20 12:13:21;;;;;;;5.28;3.35;;;39.80;25.10;;;;;;6257355;28;20547;-74
2023/06/20 12:16:23;;;;;;;6.88;2.92;;;39.70;25.10;;;;;;6242907;28;20026;-75
2023/06/20 12:19:24;;;;;;;8.02;3.20;;;39.70;25.10;;;;;;6242115;28;20159;-75
2023/06/20 12:22:25;;;;;;;9.50;4.20;;;39.80;25.00;;;;;;6256458;28;20278;-73
2023/06/20 12:25:26;;;;;;;6.13;3.55;;;39.70;25.00;;;;;;6242363;28;20116;-74
2023/06/20 12:28:27;;;;;;;10.23;3.72;;;39.30;25.10;;;;;;6240524;28;20034;-73
2023/06/20 12:31:28;;;;;;;15.15;3.80;;;39.00;25.40;;;;;;6241927;28;20021;-73
2023/06/20 12:34:29;;;;;;;12.07;3.38;;;38.70;25.70;;;;;;6239831;28;20055;-73
2023/06/20 12:37:30;;;;;;;12.18;3.58;;;38.90;25.50;;;;;;6252809;28;20064;-73
2023/06/20 12:40:31;;;;;;;11.38;3.67;;;38.70;25.60;;;;;;6265579;28;20040;-74
2023/06/20 12:43:32;;;;;;;6.45;3.38;;;38.40;25.80;;;;;;6265369;28;20035;-73
2023/06/20 12:46:33;;;;;;;5.82;3.13;;;38.20;26.10;;;;;;6258312;28;20123;-74
2023/06/20 12:49:34;;;;;;;13.52;3.70;;;38.40;26.20;;;;;;6242365;28;20038;-74
2023/06/20 12:52:34;;;;;;;10.35;3.75;;;38.60;26.20;;;;;;6256660;28;20361;-73
2023/06/20 12:55:35;;;;;;;7.72;3.67;;;38.90;25.90;;;;;;6242424;28;20068;-73
2023/06/20 12:58:36;;;;;;;7.70;4.00;;;39.10;25.80;;;;;;6241045;28;20168;-73
2023/06/20 13:01:38;;;;;;;27.42;4.40;;;38.90;26.10;;;;;;6241102;28;20106;-73
2023/06/20 13:04:39;;;;;;;14.98;3.88;;;38.70;26.50;;;;;;6245268;28;20111;-73
2023/06/20 13:07:40;;;;;;;8.98;4.05;;;38.40;26.80;;;;;;6245177;28;20116;-75
2023/06/20 13:10:44;;;;;;;8.82;3.83;;;38.50;26.80;;;;;;6244927;28;20152;-74
2023/06/20 13:13:45;;;;;;;11.93;4.07;;;38.60;26.70;;;;;;6228138;28;20156;-72
2023/06/20 13:16:48;;;;;;;10.82;3.70;;;38.70;26.80;;;;;;6242791;28;20618;-73
2023/06/20 13:19:49;;;;;;;8.95;3.60;;;38.90;26.50;;;;;;6243116;28;20112;-74
2023/06/20 13:22:54;;;;;;;6.35;3.70;;;38.90;26.50;;;;;;6243119;28;20079;-73
2023/06/20 13:25:55;;;;;;;7.47;3.67;;;38.90;26.50;;;;;;6243343;28;20068;-73
2023/06/20 13:28:55;;;;;;;10.43;3.70;;;39.20;26.40;;;;;;6257697;28;20096;-74
2023/06/20 13:31:56;;;;;;;13.05;3.63;;;39.50;26.00;;;;;;6242992;28;20051;-74
2023/06/20 13:34:57;;;;;;;11.18;4.07;;;40.00;25.60;;;;;;6256690;28;20030;-74
2023/06/20 13:37:58;;;;;;;10.75;4.68;;;40.30;25.30;;;;;;6259302;28;20473;-75
2023/06/20 13:40:59;;;;;;;7.25;3.80;;;40.20;25.30;;;;;;6233502;28;20206;-73
2023/06/20 13:44:00;;;;;;;8.18;3.33;;;39.90;25.50;;;;;;6218950;28;20540;-74
2023/06/20 13:47:01;;;;;;;9.15;3.35;;;39.40;26.00;;;;;;6234019;28;20038;-74
2023/06/20 13:50:03;;;;;;;10.63;4.05;;;39.40;25.90;;;;;;6236842;28;20037;-74
2023/06/20 13:53:04;;;;;;;14.95;4.85;;;39.90;25.60;;;;;;6220125;28;20092;-73
2023/06/20 13:56:06;;;;;;;11.32;3.42;;;40.50;25.20;;;;;;6235470;28;20026;-74
2023/06/20 13:59:07;;;;;;;12.50;3.63;;;41.10;24.40;;;;;;6220955;28;20109;-74
2023/06/20 14:02:09;;;;;;;8.18;3.45;;;41.50;23.70;;;;;;6218554;28;20038;-73
2023/06/20 14:05:13;;;;;;;4.57;3.40;;;41.90;23.40;;;;;;6220588;28;20355;-74
2023/06/20 14:08:14;;;;;;;5.63;3.10;;;42.10;23.10;;;;;;6235160;28;20073;-74
2023/06/20 14:11:15;;;;;;;6.30;3.50;;;42.40;22.80;;;;;;6219881;28;20481;-73
2023/06/20 14:14:15;;;;;;;8.15;3.10;;;42.40;22.70;;;;;;6234752;28;20029;-73
2023/06/20 14:17:17;;;;;;;14.98;3.65;;;42.20;22.70;;;;;;6220157;28;20021;-74
2023/06/20 14:20:18;;;;;;;6.65;3.38;;;42.00;22.90;;;;;;6235355;28;20732;-72
2023/06/20 14:23:19;;;;;;;8.80;3.30;;;41.80;22.90;;;;;;6220878;28;20057;-73
2023/06/20 14:26:20;;;;;;;6.05;2.92;;;41.40;23.10;;;;;;6244742;28;20030;-73
2023/06/20 14:29:21;;;;;;;6.88;3.58;;;41.20;23.30;;;;;;6242209;28;20044;-75
2023/06/20 14:32:22;;;;;;;6.50;3.60;;;40.70;23.60;;;;;;6243225;28;20516;-75
2023/06/20 14:35:23;;;;;;;5.72;3.60;;;40.00;24.30;;;;;;6245147;28;20053;-74
2023/06/20 14:38:24;;;;;;;12.05;3.70;;;39.20;25.00;;;;;;6242175;28;20049;-74
2023/06/20 14:41:25;;;;;;;11.27;3.60;;;38.90;25.50;;;;;;6259157;28;20142;-73
2023/06/20 14:44:26;;;;;;;6.28;3.78;;;39.10;25.40;;;;;;6244729;28;20083;-76
2023/06/20 14:47:27;;;;;;;7.18;3.45;;;39.20;25.20;;;;;;6242803;28;20029;-73
2023/06/20 14:50:28;;;;;;;6.90;3.38;;;39.00;25.50;;;;;;6258936;28;20029;-75
2023/06/20 14:53:30;;;;;;;8.65;3.83;;;38.90;25.50;;;;;;6241490;28;20086;-74
2023/06/20 14:56:30;;;;;;;6.40;3.53;;;39.10;25.50;;;;;;6258862;28;20124;-73
2023/06/20 14:59:32;;;;;;;4.70;3.38;;;39.30;25.50;;;;;;6258725;28;20064;-73
2023/06/20 15:02:33;;;;;;;4.90;3.42;;;39.20;25.60;;;;;;6259467;28;20029;-75
2023/06/20 15:05:34;;;;;;;6.75;3.63;;;39.10;25.70;;;;;;6241938;28;20048;-75
2023/06/20 15:08:35;;;;;;;7.50;3.63;;;39.20;25.70;;;;;;6241607;28;20029;-73
2023/06/20 15:11:35;;;;;;;6.55;3.63;;;39.30;25.60;;;;;;6260394;28;20055;-75
2023/06/20 15:14:36;;;;;;;6.72;3.65;;;39.40;25.50;;;;;;6242463;28;20394;-74
2023/06/20 15:17:37;;;;;;;7.30;3.92;;;39.60;25.50;;;;;;6243077;28;20091;-73
2023/06/20 15:20:38;;;;;;;8.00;3.63;;;39.50;25.60;;;;;;6241721;28;20459;-72
2023/06/20 15:23:39;;;;;;;8.70;4.13;;;39.10;26.00;;;;;;6249516;28;20465;-74
2023/06/20 15:26:40;;;;;;;5.07;3.40;;;38.80;26.70;;;;;;6244185;28;20771;-72
2023/06/20 15:29:41;;;;;;;5.20;3.75;;;38.60;26.70;;;;;;6262414;28;20052;-73
2023/06/20 15:32:45;;;;;;;8.20;3.42;;;38.70;26.60;;;;;;6244593;28;20106;-75
2023/06/20 15:35:46;;;;;;;9.18;4.10;;;38.90;26.50;;;;;;6234064;28;20029;-73
2023/06/20 15:38:47;;;;;;;8.75;3.75;;;39.10;26.20;;;;;;6222634;28;20120;-73
2023/06/20 15:41:48;;;;;;;15.18;4.03;;;39.00;26.30;;;;;;6240352;28;20039;-74
2023/06/20 15:44:55;;;;;;;6.13;3.88;;;38.80;26.60;;;;;;6242412;28;20044;-75
2023/06/20 15:47:55;;;;;;;6.15;3.72;;;38.60;26.80;;;;;;6241828;28;20025;-74